Terminal Aerodrome Forecast
Issued by NWS

Home | Current Version | Previous Version | Text Only | Print | Product List | Glossary On
Versions: 1 2 3 4 5 6 7 8 9 10 11 12 13 14 15 16 17 18
000
FTUS44 KMOB 270802 AAA
TAFBFM
TAF AMD
KBFM 270802Z 2708/2806 17005KT P6SM BKN006 OVC018
      TEMPO 2709/2713 1SM BR
     FM271800 17011G18KT P6SM VCSH SCT025 BKN050
     FM280300 17003KT 2SM BR OVC004=

USA.gov is the U.S. government's official web portal to all federal, state and local government web resources and services.